This is the latest recevied weather packets stored in our database for station/object EA7AIS-10. If no packets are shown the sender has not sent any weather packets the latest 10 day(s).
| Time | Temp. | Humidity | Pressure | Rain* | Wind** | Luminosity | Snow |
|---|---|---|---|---|---|---|---|
| 1777557661 | 25.56° C | 47% | 1013.1 hPa | - | - | - | - |
| 1777556761 | 25° C | 48% | 1013.2 hPa | - | - | - | - |
| 1777555861 | 24.44° C | 51% | 1013.1 hPa | - | - | - | - |
| 1777554961 | 23.89° C | 54% | 1012.9 hPa | - | - | - | - |
| 1777554061 | 23.89° C | 54% | 1013 hPa | - | - | - | - |
| 1777553160 | 23.33° C | 57% | 1013.1 hPa | - | - | - | - |
| 1777552260 | 23.33° C | 57% | 1013.2 hPa | - | - | - | - |
| 1777551361 | 23.89° C | 52% | 1013.2 hPa | - | - | - | - |
| 1777550460 | 23.89° C | 45% | 1013.2 hPa | - | - | - | - |
| 1777549560 | 23.89° C | 44% | 1013.2 hPa | - | - | - | - |
| 1777548660 | 23.89° C | 40% | 1013.2 hPa | - | - | - | - |
| 1777547761 | 23.33° C | 40% | 1013.4 hPa | - | - | - | - |
| 1777545960 | 23.33° C | 44% | 1013.7 hPa | - | - | - | - |
| 1777545060 | 23.33° C | 43% | 1013.6 hPa | - | - | - | - |
| 1777544160 | 23.33° C | 44% | 1013.7 hPa | - | - | - | - |
| 1777543260 | 22.78° C | 49% | 1013.6 hPa | - | - | - | - |
| 1777542360 | 22.78° C | 50% | 1013.6 hPa | - | - | - | - |
| 1777540560 | 23.89° C | 49% | 1013.5 hPa | - | - | - | - |
| 1777539659 | 25.56° C | 46% | 1013.5 hPa | - | - | - | - |
| 1777538759 | 25.56° C | 43% | 1013.4 hPa | - | - | - | - |
| 1777537859 | 26.67° C | 41% | 1013.4 hPa | - | - | - | - |
| 1777536960 | 28.33° C | 39% | 1013.3 hPa | - | - | - | - |
| 1777535159 | 26.67° C | 42% | 1013.3 hPa | - | - | - | - |
| 1777534259 | 26.11° C | 45% | 1013.2 hPa | - | - | - | - |
| 1777533359 | 23.89° C | 51% | 1013.2 hPa | - | - | - | - |
* Rain since midnight (hover to see other rain measurements)
** Current wind speed in m/s (hover to see current wind gust speed)